Time;durP1;ratioP1;P1;durP2;ratioP2;P2;SDS_P1;SDS_P2;PMS_P1;PMS_P2;Temp;Humidity;BMP_temperature;BMP_pressure;BME280_temperature;BME280_humidity;BME280_pressure;Samples;Min_cycle;Max_cycle;Signal;HPM_P1;HPM_P2
2023/04/02 00:01:38;;;;;;;15.70;10.33;;;7.90;99.90;;;;;;4146144;28;19968;-64
2023/04/02 00:03:41;;;;;;;19.60;10.10;;;7.90;99.90;;;;;;4145670;28;20034;-64
2023/04/02 00:05:51;;;;;;;16.40;10.53;;;7.90;99.90;;;;;;4149363;28;20382;-64
2023/04/02 00:07:56;;;;;;;15.27;10.43;;;7.90;99.90;;;;;;4161667;28;20076;-64
2023/04/02 00:09:58;;;;;;;20.47;10.57;;;7.90;99.90;;;;;;4160435;28;20076;-64
2023/04/02 00:12:14;;;;;;;14.93;10.47;;;7.90;99.90;;;;;;4162699;28;20030;-64
2023/04/02 00:14:17;;;;;;;17.30;10.07;;;7.90;99.90;;;;;;4161001;28;20448;-64
2023/04/02 00:16:22;;;;;;;17.83;9.87;;;7.80;99.90;;;;;;4162209;28;20037;-64
2023/04/02 00:18:24;;;;;;;16.40;10.10;;;7.90;99.90;;;;;;4140785;28;20100;-64
2023/04/02 00:20:27;;;;;;;15.97;10.10;;;7.90;99.90;;;;;;4155946;28;20515;-65
2023/04/02 00:22:31;;;;;;;15.13;9.73;;;7.80;99.90;;;;;;4159853;28;20169;-64
2023/04/02 00:24:32;;;;;;;20.70;10.27;;;7.80;99.90;;;;;;4148777;28;20135;-65
2023/04/02 00:26:38;;;;;;;16.03;10.37;;;7.90;99.90;;;;;;4145007;28;20038;-64
2023/04/02 00:28:40;;;;;;;16.20;9.90;;;7.90;99.90;;;;;;4144490;28;20116;-64
2023/04/02 00:30:54;;;;;;;18.33;10.03;;;7.90;99.90;;;;;;4145047;28;20026;-64
2023/04/02 00:32:55;;;;;;;13.87;9.90;;;7.90;99.90;;;;;;4146312;28;20038;-64
2023/04/02 00:34:57;;;;;;;17.37;11.03;;;7.90;99.90;;;;;;4144802;28;20558;-64
2023/04/02 00:36:59;;;;;;;13.97;9.60;;;7.90;99.90;;;;;;4151547;28;20079;-64
2023/04/02 00:39:04;;;;;;;14.73;9.43;;;7.90;99.90;;;;;;4154152;28;20483;-64
2023/04/02 00:41:06;;;;;;;16.53;10.23;;;7.90;99.90;;;;;;4151565;28;20029;-64
2023/04/02 00:43:15;;;;;;;16.57;9.53;;;7.90;99.90;;;;;;4144984;28;20107;-64
2023/04/02 00:45:29;;;;;;;16.13;9.57;;;7.90;99.90;;;;;;4145952;28;20033;-65
2023/04/02 00:47:34;;;;;;;14.77;8.57;;;7.90;99.90;;;;;;4144849;28;20042;-65
2023/04/02 00:49:38;;;;;;;17.73;10.10;;;7.90;99.90;;;;;;4146017;28;20042;-64
2023/04/02 00:51:48;;;;;;;16.23;9.33;;;7.90;99.90;;;;;;4144613;28;20049;-65
2023/04/02 00:53:53;;;;;;;15.45;9.13;;;7.90;99.90;;;;;;4145385;28;20592;-64
2023/04/02 00:55:57;;;;;;;14.43;8.67;;;7.90;99.90;;;;;;4144489;28;20034;-65
2023/04/02 00:58:00;;;;;;;15.80;9.00;;;7.90;99.90;;;;;;4145595;28;20080;-64
2023/04/02 01:00:14;;;;;;;15.67;8.53;;;7.90;99.90;;;;;;4144809;28;20096;-64
2023/04/02 01:02:18;;;;;;;14.33;9.90;;;7.90;99.90;;;;;;4145552;28;20100;-64
2023/04/02 01:04:36;;;;;;;14.17;8.77;;;7.90;99.90;;;;;;4154331;28;20455;-64
2023/04/02 01:06:38;;;;;;;12.40;8.17;;;8.00;99.90;;;;;;4162139;28;20587;-64
2023/04/02 01:08:57;;;;;;;12.90;7.93;;;8.00;99.90;;;;;;4159260;28;20060;-64
2023/04/02 01:11:24;;;;;;;14.38;7.75;;;8.00;99.90;;;;;;4160269;28;20087;-64
2023/04/02 01:13:38;;;;;;;13.00;8.13;;;8.10;99.90;;;;;;4152074;28;20506;-64
2023/04/02 01:15:50;;;;;;;11.73;7.53;;;8.00;99.90;;;;;;4145524;28;20030;-66
2023/04/02 01:18:06;;;;;;;12.60;7.57;;;8.10;99.90;;;;;;4149455;28;20029;-65
2023/04/02 01:20:29;;;;;;;15.63;7.97;;;8.10;99.90;;;;;;4161880;28;20060;-65
2023/04/02 01:22:54;;;;;;;10.50;7.00;;;8.10;99.90;;;;;;4160537;28;20473;-64
2023/04/02 01:24:57;;;;;;;11.97;7.17;;;8.10;99.90;;;;;;4159943;28;20168;-64
2023/04/02 01:27:14;;;;;;;14.47;7.63;;;8.10;99.90;;;;;;4155395;28;20041;-65
2023/04/02 01:29:44;;;;;;;12.13;6.90;;;8.10;99.90;;;;;;4160038;28;20075;-64
2023/04/02 01:31:47;;;;;;;10.43;7.33;;;8.10;99.90;;;;;;4160611;28;20461;-64
2023/04/02 01:33:49;;;;;;;11.13;7.17;;;8.10;99.90;;;;;;4161102;28;20046;-63
2023/04/02 01:36:05;;;;;;;9.93;7.30;;;8.10;99.90;;;;;;4159656;28;20041;-64
2023/04/02 01:38:59;;;;;;;7.43;5.90;;;8.10;99.90;;;;;;4161871;28;20092;-64
2023/04/02 01:41:27;;;;;;;9.13;6.37;;;8.10;99.90;;;;;;4147950;28;20037;-64
2023/04/02 01:44:08;;;;;;;9.97;6.93;;;8.10;99.90;;;;;;4159987;28;20038;-65
2023/04/02 01:46:30;;;;;;;8.77;5.88;;;8.10;99.90;;;;;;4111468;28;20595;-64
2023/04/02 01:48:32;;;;;;;10.00;6.33;;;8.10;99.90;;;;;;4158377;28;20071;-64
2023/04/02 01:50:36;;;;;;;12.43;6.27;;;8.10;99.90;;;;;;4161023;28;20037;-64
2023/04/02 01:52:40;;;;;;;9.63;6.17;;;8.10;99.90;;;;;;4159679;28;20068;-67
2023/04/02 01:54:42;;;;;;;9.63;6.20;;;8.10;99.90;;;;;;4161023;28;20080;-64
2023/04/02 01:56:44;;;;;;;10.10;6.00;;;8.10;99.90;;;;;;4159717;28;20067;-64
2023/04/02 01:58:48;;;;;;;10.13;6.30;;;8.10;99.90;;;;;;4160672;28;20053;-65
2023/04/02 02:00:54;;;;;;;12.50;6.60;;;8.10;99.90;;;;;;4160354;28;20536;-63
2023/04/02 02:02:57;;;;;;;9.10;6.10;;;8.10;99.90;;;;;;4160875;28;20075;-64
2023/04/02 02:04:59;;;;;;;11.97;5.70;;;8.10;99.90;;;;;;4160143;28;20075;-64
2023/04/02 02:07:02;;;;;;;8.40;5.80;;;8.10;99.90;;;;;;4161257;28;20034;-64
2023/04/02 02:09:06;;;;;;;11.47;6.03;;;8.10;99.90;;;;;;4159878;28;20049;-64
2023/04/02 02:11:13;;;;;;;10.73;6.23;;;8.10;99.90;;;;;;4158240;28;20850;-63
2023/04/02 02:13:15;;;;;;;11.50;6.10;;;8.10;99.90;;;;;;4158485;28;20053;-64
2023/04/02 02:15:20;;;;;;;8.57;5.73;;;8.10;99.90;;;;;;4160201;28;20432;-63
2023/04/02 02:17:29;;;;;;;9.87;5.77;;;8.10;99.90;;;;;;4160686;28;20025;-64
2023/04/02 02:19:51;;;;;;;12.17;6.03;;;8.20;99.90;;;;;;4158102;28;20060;-64
2023/04/02 02:21:56;;;;;;;9.83;5.40;;;8.10;99.90;;;;;;4160368;28;20428;-64
2023/04/02 02:23:59;;;;;;;10.13;5.40;;;8.10;99.90;;;;;;4159991;28;20030;-64
2023/04/02 02:26:00;;;;;;;7.00;5.20;;;8.10;99.90;;;;;;4154982;28;20080;-63
2023/04/02 02:28:04;;;;;;;7.53;5.43;;;8.10;99.90;;;;;;4150826;28;20737;-64
2023/04/02 02:30:11;;;;;;;11.90;5.60;;;8.10;99.90;;;;;;4156642;28;20067;-63
2023/04/02 02:32:14;;;;;;;7.70;5.00;;;8.10;99.90;;;;;;4157031;28;20071;-63
2023/04/02 02:34:21;;;;;;;7.53;5.80;;;8.10;99.90;;;;;;4160245;28;20037;-63
2023/04/02 02:36:32;;;;;;;8.53;5.77;;;8.10;99.90;;;;;;4159576;28;20029;-64
2023/04/02 02:38:33;;;;;;;9.57;6.50;;;8.10;99.90;;;;;;4160944;28;20417;-64
2023/04/02 02:40:43;;;;;;;10.17;6.43;;;8.00;99.90;;;;;;4159537;28;20537;-64
2023/04/02 02:42:51;;;;;;;10.67;6.57;;;8.00;99.90;;;;;;4159653;28;20067;-64
2023/04/02 02:44:54;;;;;;;9.70;6.37;;;8.00;99.90;;;;;;4159627;28;20316;-64
2023/04/02 02:47:00;;;;;;;9.23;6.40;;;8.00;99.90;;;;;;4160730;28;20087;-64
2023/04/02 02:49:03;;;;;;;7.33;6.00;;;8.00;99.90;;;;;;4152297;28;20088;-65
2023/04/02 02:51:14;;;;;;;10.60;5.97;;;7.90;99.90;;;;;;4142631;28;20076;-69
2023/04/02 02:53:17;;;;;;;;;;;7.90;99.90;;;;;;4143642;28;20040;-64
2023/04/02 02:55:26;;;;;;;8.47;6.03;;;7.90;99.90;;;;;;4144518;28;19967;-63
2023/04/02 02:57:34;;;;;;;7.40;5.60;;;7.90;99.90;;;;;;4143041;28;20034;-64
2023/04/02 02:59:36;;;;;;;10.30;5.37;;;7.90;99.90;;;;;;4144257;28;20143;-64
2023/04/02 03:01:37;;;;;;;9.73;5.40;;;7.90;99.90;;;;;;4142992;28;20433;-63
2023/04/02 03:03:39;;;;;;;8.33;5.20;;;7.80;99.90;;;;;;4154605;28;20477;-64
2023/04/02 03:05:40;;;;;;;10.77;5.00;;;7.90;99.90;;;;;;4158895;28;20095;-64
2023/04/02 03:07:42;;;;;;;8.60;4.10;;;7.80;99.90;;;;;;4160140;28;20087;-67
2023/04/02 03:09:46;;;;;;;4.93;4.13;;;7.90;99.90;;;;;;4159270;28;20038;-64
2023/04/02 03:11:53;;;;;;;7.10;3.80;;;7.90;99.90;;;;;;4153308;28;20493;-64
2023/04/02 03:14:02;;;;;;;6.40;4.00;;;7.90;99.90;;;;;;4143561;28;20025;-69
2023/04/02 03:16:30;;;;;;;9.87;4.43;;;8.00;99.90;;;;;;4143617;28;20034;-70
2023/04/02 03:18:48;;;;;;;6.80;4.33;;;8.00;99.90;;;;;;4143131;28;20042;-65
2023/04/02 03:20:56;;;;;;;7.10;3.83;;;8.00;99.90;;;;;;4143644;28;20038;-67
2023/04/02 03:23:08;;;;;;;7.20;4.27;;;8.00;99.90;;;;;;4142683;28;20054;-69
2023/04/02 03:25:11;;;;;;;5.33;3.53;;;7.90;99.90;;;;;;4159451;28;20100;-66
2023/04/02 03:27:24;;;;;;;6.93;4.00;;;8.00;99.90;;;;;;4141837;28;20522;-63
2023/04/02 03:29:29;;;;;;;8.97;4.27;;;8.00;99.90;;;;;;4144128;28;20084;-64
2023/04/02 03:31:38;;;;;;;7.20;4.60;;;7.90;99.90;;;;;;4142667;28;20041;-63
2023/04/02 03:34:03;;;;;;;7.10;4.50;;;7.90;99.90;;;;;;4140894;28;20042;-64
2023/04/02 03:36:20;;;;;;;7.90;4.33;;;7.90;99.90;;;;;;4156644;28;20378;-65
2023/04/02 03:38:30;;;;;;;8.13;5.00;;;7.90;99.90;;;;;;4160584;28;20025;-64
2023/04/02 03:40:38;;;;;;;9.55;4.50;;;7.90;99.90;;;;;;4157749;28;20037;-65
2023/04/02 03:42:48;;;;;;;9.87;4.70;;;7.90;99.90;;;;;;4144751;28;20038;-65
2023/04/02 03:45:23;;;;;;;8.45;4.40;;;7.90;99.90;;;;;;4152300;28;20138;-65
2023/04/02 03:47:27;;;;;;;9.43;4.53;;;7.90;99.90;;;;;;4122704;28;20077;-64
2023/04/02 03:49:37;;;;;;;5.20;3.50;;;7.90;99.90;;;;;;4129450;28;20097;-64
2023/04/02 03:52:09;;;;;;;5.67;3.50;;;7.90;99.90;;;;;;4130619;28;20026;-66
2023/04/02 03:54:14;;;;;;;5.53;3.57;;;8.00;99.90;;;;;;4129333;28;20034;-65
2023/04/02 03:56:29;;;;;;;4.80;2.87;;;8.00;99.90;;;;;;4130123;28;20031;-64
2023/04/02 03:58:45;;;;;;;6.97;3.53;;;8.00;99.90;;;;;;4129214;28;20038;-64
2023/04/02 04:01:17;;;;;;;6.00;3.07;;;8.00;99.90;;;;;;4134736;28;20111;-65
2023/04/02 04:03:38;;;;;;;4.47;3.07;;;8.00;99.90;;;;;;4145615;28;20026;-65
2023/04/02 04:05:49;;;;;;;5.35;2.97;;;8.00;99.90;;;;;;4145983;28;20479;-64
2023/04/02 04:07:54;;;;;;;2.93;2.60;;;8.10;99.90;;;;;;4144300;28;20041;-65
2023/04/02 04:09:57;;;;;;;5.23;3.13;;;8.10;99.90;;;;;;4146070;28;20127;-65
2023/04/02 04:12:35;;;;;;;6.03;3.20;;;8.10;99.90;;;;;;4146551;28;20022;-64
2023/04/02 04:14:43;;;;;;;5.63;2.90;;;8.10;99.90;;;;;;4156717;28;20037;-64
2023/04/02 04:17:03;;;;;;;4.73;3.40;;;8.10;99.90;;;;;;4149594;28;20033;-65
2023/04/02 04:19:21;;;;;;;6.93;3.13;;;8.10;99.90;;;;;;4145565;28;20069;-64
2023/04/02 04:21:37;;;;;;;3.97;2.80;;;8.10;99.90;;;;;;4146225;28;20049;-65
2023/04/02 04:23:39;;;;;;;6.97;2.80;;;8.10;99.90;;;;;;4143511;28;20026;-67
2023/04/02 04:25:42;;;;;;;4.67;3.10;;;8.10;99.90;;;;;;4146358;28;20437;-65
2023/04/02 04:28:06;;;;;;;6.30;2.50;;;8.10;99.90;;;;;;4145295;28;20061;-64
2023/04/02 04:30:17;;;;;;;3.33;2.73;;;8.10;99.90;;;;;;4144433;28;20050;-72
2023/04/02 04:32:41;;;;;;;;;;;8.10;99.90;;;;;;4148955;28;20366;-65
2023/04/02 04:34:50;;;;;;;5.57;2.80;;;8.10;99.90;;;;;;4161420;28;19951;-65
2023/04/02 04:37:00;;;;;;;6.77;3.20;;;8.10;99.90;;;;;;4147886;28;20045;-63
2023/04/02 04:39:16;;;;;;;6.70;3.72;;;8.10;99.90;;;;;;4146823;28;20037;-64
2023/04/02 04:41:23;;;;;;;7.60;3.63;;;8.10;99.90;;;;;;4144342;28;20108;-64
2023/04/02 04:43:29;;;;;;;9.17;4.10;;;8.10;99.90;;;;;;4145631;28;20042;-69
2023/04/02 04:45:57;;;;;;;5.10;3.37;;;8.10;99.90;;;;;;4144736;28;20076;-64
2023/04/02 04:48:04;;;;;;;4.47;2.60;;;8.10;99.90;;;;;;4151965;28;20026;-64
2023/04/02 04:50:13;;;;;;;8.83;3.37;;;8.10;99.90;;;;;;4157218;28;20737;-65
2023/04/02 04:52:25;;;;;;;6.73;3.87;;;8.10;99.90;;;;;;4153648;28;20067;-64
2023/04/02 04:54:27;;;;;;;7.97;4.10;;;8.20;99.90;;;;;;4144444;28;20034;-65
2023/04/02 04:56:30;;;;;;;11.23;4.30;;;8.20;99.90;;;;;;4145796;28;20030;-65
2023/04/02 04:58:59;;;;;;;8.20;4.10;;;8.30;99.90;;;;;;4144377;28;20053;-65
2023/04/02 05:01:00;;;;;;;9.00;4.40;;;8.30;99.90;;;;;;4145811;28;20073;-64
2023/04/02 05:03:17;;;;;;;6.43;3.13;;;8.40;99.90;;;;;;4144756;28;20022;-64
2023/04/02 05:05:28;;;;;;;7.67;3.87;;;8.40;99.90;;;;;;4145594;28;20080;-64
2023/04/02 05:07:43;;;;;;;6.67;4.07;;;8.40;99.90;;;;;;4144509;28;20050;-63
2023/04/02 05:10:23;;;;;;;5.63;4.37;;;8.50;99.90;;;;;;4145608;28;20092;-64
2023/04/02 05:12:34;;;;;;;7.03;4.20;;;8.60;99.90;;;;;;4141572;28;20085;-64
2023/04/02 05:14:46;;;;;;;6.45;4.60;;;8.60;99.90;;;;;;4145502;28;20080;-63
2023/04/02 05:17:14;;;;;;;8.30;5.03;;;8.60;99.90;;;;;;4144439;28;20536;-64
2023/04/02 05:19:22;;;;;;;8.47;5.20;;;8.60;99.90;;;;;;4150475;28;20045;-64
2023/04/02 05:21:37;;;;;;;9.53;4.97;;;8.60;99.90;;;;;;4160819;28;20029;-64
2023/04/02 05:24:08;;;;;;;8.87;4.97;;;8.70;99.90;;;;;;4161051;28;20025;-64
2023/04/02 05:26:29;;;;;;;11.67;5.00;;;8.80;99.90;;;;;;4161585;28;20026;-65
2023/04/02 05:28:45;;;;;;;9.90;4.90;;;8.90;99.90;;;;;;4158758;28;20075;-67
2023/04/02 05:31:02;;;;;;;11.80;5.77;;;8.90;99.90;;;;;;4145384;28;20037;-66
2023/04/02 05:33:16;;;;;;;9.33;6.50;;;9.00;99.90;;;;;;4148224;28;20549;-65
2023/04/02 05:35:21;;;;;;;6.87;5.80;;;9.00;99.90;;;;;;4155068;28;20430;-66
2023/04/02 05:37:26;;;;;;;12.23;6.03;;;9.00;99.90;;;;;;4144295;28;20037;-65
2023/04/02 05:39:28;;;;;;;14.00;8.53;;;9.00;99.90;;;;;;4145115;28;20034;-65
2023/04/02 05:41:35;;;;;;;8.70;6.00;;;9.20;99.90;;;;;;4157198;28;20107;-65
2023/04/02 05:43:39;;;;;;;9.17;5.30;;;9.20;99.90;;;;;;4144745;28;20029;-65
2023/04/02 05:45:44;;;;;;;10.20;6.00;;;9.40;99.90;;;;;;4143705;28;20487;-65
2023/04/02 05:47:47;;;;;;;10.20;5.63;;;9.50;99.90;;;;;;4144481;28;20125;-64
2023/04/02 05:50:11;;;;;;;15.27;5.67;;;9.60;99.90;;;;;;4143837;28;20065;-65
2023/04/02 05:52:18;;;;;;;10.33;5.37;;;9.70;99.90;;;;;;4144087;28;20038;-65
2023/04/02 05:55:08;;;;;;;11.73;4.67;;;9.90;99.90;;;;;;4143403;28;20776;-65
2023/04/02 05:57:15;;;;;;;3.90;2.97;;;10.00;99.90;;;;;;4144653;28;20088;-65
2023/04/02 05:59:38;;;;;;;5.73;3.47;;;10.00;99.90;;;;;;4143064;28;20057;-65
2023/04/02 06:02:02;;;;;;;7.97;3.40;;;10.20;99.90;;;;;;4144310;28;20041;-66
2023/04/02 06:04:21;;;;;;;7.83;3.47;;;10.30;99.90;;;;;;4143217;28;20076;-66
2023/04/02 06:06:38;;;;;;;5.80;3.43;;;10.40;99.90;;;;;;4144150;28;20577;-65
2023/04/02 06:08:44;;;;;;;6.83;3.20;;;10.40;99.90;;;;;;4143189;28;20088;-65
2023/04/02 06:10:57;;;;;;;6.87;3.80;;;10.60;99.90;;;;;;4143923;28;20591;-66
2023/04/02 06:13:10;;;;;;;4.77;3.03;;;10.70;99.90;;;;;;4143127;28;20084;-65
2023/04/02 06:15:17;;;;;;;5.70;3.30;;;10.80;99.90;;;;;;4158742;28;20041;-64
2023/04/02 06:17:20;;;;;;;7.80;3.30;;;10.80;99.90;;;;;;4151542;28;20021;-65
2023/04/02 06:19:36;;;;;;;5.17;3.47;;;10.80;99.90;;;;;;4143934;28;20046;-68
2023/04/02 06:21:44;;;;;;;7.93;3.23;;;10.70;99.90;;;;;;4143443;28;20798;-64
2023/04/02 06:23:57;;;;;;;10.87;3.20;;;10.70;99.90;;;;;;4144097;28;20822;-66
2023/04/02 06:26:05;;;;;;;5.87;2.83;;;10.70;99.90;;;;;;4143176;28;20475;-66
2023/04/02 06:28:14;;;;;;;4.33;3.10;;;10.70;99.90;;;;;;4145168;28;20461;-65
2023/04/02 06:30:24;;;;;;;5.07;3.37;;;10.80;99.90;;;;;;4144261;28;20808;-65
2023/04/02 06:32:26;;;;;;;6.43;3.23;;;10.80;99.90;;;;;;4160486;28;20021;-66
2023/04/02 06:34:30;;;;;;;6.13;4.00;;;10.80;99.90;;;;;;4152393;28;20091;-66
2023/04/02 06:36:32;;;;;;;5.60;3.23;;;10.90;99.90;;;;;;4158855;28;20398;-65
2023/04/02 06:38:35;;;;;;;5.23;2.87;;;11.00;99.90;;;;;;4158201;28;20038;-65
2023/04/02 06:40:45;;;;;;;10.57;6.17;;;11.10;99.90;;;;;;4127951;28;20058;-66
2023/04/02 06:42:49;;;;;;;8.73;4.57;;;11.20;99.90;;;;;;4148349;28;20088;-66
2023/04/02 06:44:50;;;;;;;9.90;5.37;;;11.30;99.90;;;;;;4158678;28;20083;-65
2023/04/02 06:46:57;;;;;;;9.23;5.27;;;11.40;99.90;;;;;;4158548;28;20033;-64
2023/04/02 06:49:24;;;;;;;7.10;4.10;;;11.60;99.90;;;;;;4160125;28;20025;-65
2023/04/02 06:51:27;;;;;;;9.17;4.67;;;11.70;99.90;;;;;;4158841;28;20140;-66
2023/04/02 06:53:35;;;;;;;11.57;3.97;;;11.80;99.90;;;;;;4160773;28;20025;-64
2023/04/02 06:56:16;;;;;;;5.40;3.20;;;12.00;99.90;;;;;;4158133;28;20021;-66
2023/04/02 06:58:18;;;;;;;7.20;4.33;;;12.10;99.90;;;;;;4159863;28;20029;-63
2023/04/02 07:00:47;;;;;;;6.37;4.50;;;12.20;99.90;;;;;;4159166;28;20087;-64
2023/04/02 07:02:49;;;;;;;8.17;3.77;;;12.40;99.90;;;;;;4141426;28;20042;-61
2023/04/02 07:04:51;;;;;;;5.50;3.97;;;12.50;99.90;;;;;;4158817;28;20119;-64
2023/04/02 07:06:52;;;;;;;10.30;5.17;;;12.60;99.90;;;;;;4160556;28;20091;-67
2023/04/02 07:08:53;;;;;;;11.60;4.10;;;12.70;99.90;;;;;;4159725;28;21051;-66
2023/04/02 07:10:55;;;;;;;5.20;3.93;;;12.90;99.90;;;;;;4160425;28;20056;-63
2023/04/02 07:12:56;;;;;;;6.13;3.97;;;12.90;99.90;;;;;;4155272;28;20034;-66
2023/04/02 07:14:57;;;;;;;8.10;5.30;;;12.90;99.90;;;;;;4157049;28;20095;-66
2023/04/02 07:16:59;;;;;;;8.80;5.50;;;13.00;99.90;;;;;;4160465;28;20071;-65
2023/04/02 07:19:03;;;;;;;7.90;4.43;;;13.00;99.90;;;;;;4163538;28;20021;-65
2023/04/02 07:21:04;;;;;;;8.90;3.63;;;13.10;99.90;;;;;;4159776;28;20107;-63
2023/04/02 07:23:05;;;;;;;6.00;3.63;;;13.20;99.90;;;;;;4163344;28;20091;-64
2023/04/02 07:25:06;;;;;;;7.57;4.20;;;13.50;99.90;;;;;;4162390;28;20037;-64
2023/04/02 07:27:10;;;;;;;6.27;3.37;;;13.60;99.90;;;;;;4163119;28;20080;-65
2023/04/02 07:29:16;;;;;;;4.30;2.73;;;13.50;99.90;;;;;;4162688;28;20393;-65
2023/04/02 07:31:23;;;;;;;10.57;3.53;;;13.40;99.90;;;;;;4162136;28;20092;-63
2023/04/02 07:33:27;;;;;;;5.97;3.10;;;13.30;99.90;;;;;;4154195;28;20390;-64
2023/04/02 07:35:28;;;;;;;4.93;2.70;;;13.20;99.90;;;;;;4155347;28;20025;-65
2023/04/02 07:37:30;;;;;;;9.20;3.20;;;13.10;99.90;;;;;;4163404;28;20022;-65
2023/04/02 07:39:31;;;;;;;8.17;3.17;;;13.00;99.90;;;;;;4160359;28;20049;-63
2023/04/02 07:41:33;;;;;;;6.17;4.00;;;13.10;99.90;;;;;;4162866;28;20037;-64
2023/04/02 07:43:34;;;;;;;5.73;3.07;;;13.10;99.90;;;;;;4160267;28;20049;-63
2023/04/02 07:45:35;;;;;;;3.87;2.57;;;13.00;99.90;;;;;;4156813;28;20037;-67
2023/04/02 07:47:37;;;;;;;3.83;2.80;;;12.90;99.90;;;;;;4161853;28;20037;-66
2023/04/02 07:49:38;;;;;;;5.63;2.97;;;13.00;99.90;;;;;;4161753;28;20075;-65
2023/04/02 07:51:39;;;;;;;5.00;3.00;;;13.20;99.90;;;;;;4162285;28;20555;-69
2023/04/02 07:53:40;;;;;;;5.73;3.00;;;13.50;99.90;;;;;;4163239;28;20041;-64
2023/04/02 07:55:41;;;;;;;4.77;2.67;;;13.60;99.90;;;;;;4161533;28;20106;-66
2023/04/02 07:57:51;;;;;;;3.20;2.73;;;13.90;99.90;;;;;;4162878;28;20033;-64
2023/04/02 07:59:55;;;;;;;3.25;2.38;;;14.10;99.90;;;;;;4161936;28;20383;-67
2023/04/02 08:01:56;;;;;;;2.97;2.57;;;14.30;99.90;;;;;;4148441;28;21042;-66
2023/04/02 08:03:57;;;;;;;3.63;2.57;;;14.10;99.90;;;;;;4146824;28;20060;-65
2023/04/02 08:05:59;;;;;;;6.30;2.83;;;14.10;99.90;;;;;;4153933;28;20037;-67
2023/04/02 08:08:00;;;;;;;3.97;3.10;;;14.10;99.90;;;;;;4150623;28;20049;-65
2023/04/02 08:10:02;;;;;;;5.03;3.30;;;14.10;99.90;;;;;;4145617;28;20073;-64
2023/04/02 08:12:04;;;;;;;3.43;2.70;;;14.30;99.90;;;;;;4157342;28;20049;-65
2023/04/02 08:14:05;;;;;;;6.27;3.17;;;14.50;99.90;;;;;;4159661;28;20018;-64
2023/04/02 08:16:07;;;;;;;4.07;2.87;;;14.50;99.90;;;;;;4152040;28;20034;-63
2023/04/02 08:18:09;;;;;;;4.77;2.73;;;14.60;99.90;;;;;;4161373;28;20064;-65
2023/04/02 08:20:16;;;;;;;5.17;3.00;;;14.50;99.90;;;;;;4162416;28;20725;-66
2023/04/02 08:22:18;;;;;;;5.40;2.53;;;14.40;99.90;;;;;;4147765;28;20033;-69
2023/04/02 08:24:21;;;;;;;4.33;2.47;;;14.40;99.90;;;;;;4146113;28;20423;-64
2023/04/02 08:26:22;;;;;;;6.17;2.90;;;14.30;99.90;;;;;;4144318;28;20043;-66
2023/04/02 08:28:23;;;;;;;4.07;2.73;;;14.20;99.90;;;;;;4145478;28;20068;-71
2023/04/02 08:30:25;;;;;;;4.03;2.97;;;14.20;99.90;;;;;;4144675;28;20718;-66
2023/04/02 08:32:27;;;;;;;3.40;2.85;;;14.30;99.90;;;;;;4145948;28;20092;-65
2023/04/02 08:34:29;;;;;;;3.58;2.22;;;14.40;99.90;;;;;;4145680;28;20368;-69
2023/04/02 08:36:33;;;;;;;3.20;2.22;;;14.50;99.90;;;;;;4147836;28;20100;-72
2023/04/02 08:38:34;;;;;;;2.47;2.13;;;14.40;99.90;;;;;;4144250;28;20554;-75
2023/04/02 08:40:40;;;;;;;3.33;2.30;;;14.40;99.90;;;;;;4153819;28;20049;-69
2023/04/02 08:43:02;;;;;;;3.70;2.33;;;14.50;99.90;;;;;;4157935;28;20026;-68
2023/04/02 08:45:12;;;;;;;3.83;2.45;;;14.50;99.90;;;;;;4150245;28;20088;-69
2023/04/02 08:47:15;;;;;;;3.22;2.35;;;14.40;99.90;;;;;;4161354;28;20151;-65
2023/04/02 08:49:38;;;;;;;6.22;2.10;;;14.40;99.90;;;;;;4161307;28;20034;-69
2023/04/02 08:51:40;;;;;;;4.20;2.05;;;14.30;99.90;;;;;;4147134;28;20042;-66
2023/04/02 08:53:41;;;;;;;4.55;3.20;;;14.30;99.90;;;;;;4146756;28;20498;-65
2023/04/02 08:56:21;;;;;;;4.05;2.10;;;14.20;99.90;;;;;;4157655;28;20564;-65
2023/04/02 08:58:31;;;;;;;6.72;2.47;;;14.00;99.90;;;;;;4124327;28;20104;-71
2023/04/02 09:00:38;;;;;;;3.58;2.28;;;14.10;99.90;;;;;;4127979;28;20124;-70
2023/04/02 09:02:45;;;;;;;4.03;2.58;;;14.10;99.90;;;;;;4129190;28;20430;-64
2023/04/02 09:04:47;;;;;;;3.63;1.90;;;14.00;99.90;;;;;;4128090;28;20084;-64
2023/04/02 09:06:51;;;;;;;2.50;2.30;;;13.80;99.90;;;;;;4133665;28;20379;-65
2023/04/02 09:08:53;;;;;;;3.10;2.00;;;13.70;99.90;;;;;;4143924;28;20184;-65
2023/04/02 09:11:20;;;;;;;3.63;2.00;;;13.70;99.90;;;;;;4148790;28;20026;-65
2023/04/02 09:13:24;;;;;;;5.17;2.00;;;13.60;99.90;;;;;;4148940;28;20429;-69
2023/04/02 09:15:32;;;;;;;2.63;2.27;;;13.70;99.90;;;;;;4145158;28;20100;-67
2023/04/02 09:17:33;;;;;;;4.97;2.83;;;13.90;99.90;;;;;;4143996;28;20072;-64
2023/04/02 09:19:39;;;;;;;2.65;2.35;;;14.00;99.90;;;;;;4144637;28;20026;-65
2023/04/02 09:21:47;;;;;;;2.47;2.00;;;14.10;99.90;;;;;;4144482;28;20325;-63
2023/04/02 09:23:48;;;;;;;3.17;1.83;;;14.20;99.90;;;;;;4143931;28;20149;-68
2023/04/02 09:25:52;;;;;;;1.90;1.73;;;14.30;99.90;;;;;;4144707;28;20034;-66
2023/04/02 09:27:55;;;;;;;4.80;2.23;;;14.10;99.90;;;;;;4149359;28;20432;-65
2023/04/02 09:30:25;;;;;;;2.43;2.13;;;14.20;99.90;;;;;;4160783;28;20091;-64
2023/04/02 09:32:39;;;;;;;3.72;2.58;;;14.10;99.90;;;;;;4158466;28;20131;-66
2023/04/02 09:34:40;;;;;;;3.23;1.73;;;14.00;99.90;;;;;;4160492;28;20045;-64
2023/04/02 09:36:41;;;;;;;3.63;2.17;;;13.80;99.90;;;;;;4159971;28;20095;-65
2023/04/02 09:39:11;;;;;;;3.80;2.10;;;13.80;99.90;;;;;;4161350;28;20087;-65
2023/04/02 09:41:19;;;;;;;2.38;1.80;;;13.70;99.90;;;;;;4159684;28;20490;-66
2023/04/02 09:43:33;;;;;;;3.17;2.03;;;13.90;99.90;;;;;;4158299;28;20095;-65
2023/04/02 09:45:34;;;;;;;3.43;1.97;;;14.00;99.90;;;;;;4127877;28;20081;-65
2023/04/02 09:47:36;;;;;;;2.93;1.70;;;14.00;99.90;;;;;;4127736;28;20471;-64
2023/04/02 09:49:38;;;;;;;13.03;2.80;;;14.10;99.90;;;;;;4127698;28;20019;-65
2023/04/02 09:51:39;;;;;;;2.33;1.70;;;14.10;99.90;;;;;;4128201;28;20030;-64
2023/04/02 09:53:47;;;;;;;2.17;1.60;;;14.10;99.90;;;;;;4127080;28;20134;-62
2023/04/02 09:55:49;;;;;;;4.43;2.20;;;14.00;99.90;;;;;;4128055;28;20085;-65
2023/04/02 09:58:05;;;;;;;2.40;2.20;;;13.80;99.90;;;;;;4127185;28;20041;-66
2023/04/02 10:00:13;;;;;;;2.20;2.00;;;13.90;99.90;;;;;;4143428;28;20050;-64
2023/04/02 10:02:25;;;;;;;2.07;1.87;;;13.70;99.90;;;;;;4142464;28;20046;-64
2023/04/02 10:04:44;;;;;;;3.13;1.93;;;13.70;99.90;;;;;;4143957;28;20548;-66
2023/04/02 10:06:52;;;;;;;3.97;2.40;;;13.80;99.90;;;;;;4142782;28;20025;-64
2023/04/02 10:08:53;;;;;;;1.77;1.63;;;13.70;99.90;;;;;;4142621;28;20041;-64
2023/04/02 10:10:58;;;;;;;4.33;2.40;;;13.80;99.90;;;;;;4142896;28;20046;-64
2023/04/02 10:13:19;;;;;;;4.40;1.63;;;13.90;99.90;;;;;;4144255;28;20104;-63
2023/04/02 10:15:34;;;;;;;2.90;1.90;;;13.90;99.90;;;;;;4141600;28;20099;-64
2023/04/02 10:17:36;;;;;;;4.03;2.30;;;13.80;99.90;;;;;;4144317;28;20079;-63
2023/04/02 10:19:42;;;;;;;3.97;2.70;;;13.70;99.90;;;;;;4143192;28;20030;-63
2023/04/02 10:21:47;;;;;;;3.83;2.00;;;13.80;99.90;;;;;;4142733;28;20112;-63
2023/04/02 10:23:49;;;;;;;3.28;2.20;;;13.90;99.90;;;;;;4142715;28;20080;-63
2023/04/02 10:26:15;;;;;;;2.40;1.70;;;14.00;99.90;;;;;;4142289;28;20038;-63
2023/04/02 10:28:46;;;;;;;1.90;1.70;;;14.00;99.90;;;;;;4142776;28;20058;-64
2023/04/02 10:30:53;;;;;;;;;;;14.00;99.90;;;;;;4143980;28;20084;-66
2023/04/02 10:33:04;;;;;;;3.87;2.20;;;13.90;99.90;;;;;;4143168;28;19905;-63
2023/04/02 10:35:12;;;;;;;3.77;2.00;;;13.80;99.90;;;;;;4143380;28;20030;-64
2023/04/02 10:37:44;;;;;;;3.30;1.60;;;13.80;99.90;;;;;;4143027;28;20038;-63
2023/04/02 10:40:08;;;;;;;1.77;1.60;;;13.80;99.90;;;;;;4143565;28;20311;-63
2023/04/02 10:42:15;;;;;;;3.77;2.00;;;13.80;99.90;;;;;;4141830;28;20046;-64
2023/04/02 10:44:36;;;;;;;3.90;1.67;;;13.90;99.90;;;;;;4142731;28;20482;-65
2023/04/02 10:46:55;;;;;;;6.05;3.33;;;13.90;99.90;;;;;;4143493;28;20058;-64
2023/04/02 10:49:00;;;;;;;8.60;4.03;;;14.00;99.90;;;;;;4142975;28;20030;-65
2023/04/02 10:51:24;;;;;;;7.67;5.07;;;14.10;99.90;;;;;;4144122;28;20022;-64
2023/04/02 10:53:55;;;;;;;5.57;2.33;;;14.20;99.90;;;;;;4146287;28;20114;-68
2023/04/02 10:56:04;;;;;;;6.67;1.97;;;14.30;99.90;;;;;;4136555;28;20042;-64
2023/04/02 10:58:15;;;;;;;2.90;1.70;;;14.30;99.90;;;;;;4145631;28;20522;-63
2023/04/02 11:00:24;;;;;;;2.63;1.50;;;14.30;99.90;;;;;;4147215;28;20029;-65
2023/04/02 11:02:39;;;;;;;3.10;1.50;;;14.30;99.90;;;;;;4145704;28;20453;-64
2023/04/02 11:04:45;;;;;;;1.97;1.40;;;14.30;99.90;;;;;;4147384;28;20088;-63
2023/04/02 11:07:03;;;;;;;2.63;2.10;;;14.30;99.90;;;;;;4145641;28;20506;-65
2023/04/02 11:09:12;;;;;;;3.15;2.80;;;14.30;99.90;;;;;;4147642;28;20045;-65
2023/04/02 11:11:26;;;;;;;2.80;2.23;;;14.40;99.90;;;;;;4145902;28;20042;-66
2023/04/02 11:13:38;;;;;;;3.23;1.77;;;14.40;99.90;;;;;;4147094;28;20111;-64
2023/04/02 11:15:39;;;;;;;5.97;1.50;;;14.50;99.90;;;;;;4145750;28;20042;-64
2023/04/02 11:17:42;;;;;;;4.27;1.50;;;14.60;99.90;;;;;;4147199;28;20034;-64